Time;durP1;ratioP1;P1;durP2;ratioP2;P2;SDS_P1;SDS_P2;PMS_P1;PMS_P2;Temp;Humidity;BMP_temperature;BMP_pressure;BME280_temperature;BME280_humidity;BME280_pressure;Samples;Min_cycle;Max_cycle;Signal;HPM_P1;HPM_P2
2022/03/29 00:01:51;;;;;;;34.70;3.65;;;;;;;21.08;55.50;99187.25;7313534;19;130233;-37
2022/03/29 00:04:17;;;;;;;20.73;2.38;;;;;;;21.07;55.17;99198.69;7312733;19;130587;-39
2022/03/29 00:06:42;;;;;;;28.52;2.90;;;;;;;20.96;55.41;99183.16;7312715;19;129188;-36
2022/03/29 00:09:07;;;;;;;32.00;2.88;;;;;;;21.05;55.47;99192.78;7312325;19;154679;-39
2022/03/29 00:11:33;;;;;;;35.33;3.30;;;;;;;21.07;55.11;99196.06;7311528;19;158842;-37
2022/03/29 00:13:58;;;;;;;20.17;2.15;;;;;;;21.06;55.11;99199.63;7301004;19;131890;-38
2022/03/29 00:16:23;;;;;;;30.10;3.10;;;;;;;21.08;55.44;99197.69;7312603;19;129165;-30
2022/03/29 00:18:49;;;;;;;35.13;3.20;;;;;;;21.05;55.83;99195.38;7312375;19;129381;-35
2022/03/29 00:21:14;;;;;;;25.38;2.45;;;;;;;21.09;55.32;99199.34;7311610;19;148472;-41
2022/03/29 00:23:39;;;;;;;12.80;1.88;;;;;;;21.04;55.63;99182.47;7311486;19;159104;-32
2022/03/29 00:26:04;;;;;;;35.08;3.30;;;;;;;21.06;55.34;99186.56;7312135;19;138841;-36
2022/03/29 00:28:30;;;;;;;27.20;2.63;;;;;;;20.97;55.33;99170.91;7311983;19;154428;-32
2022/03/29 00:30:55;;;;;;;28.80;2.72;;;;;;;21.07;55.71;99188.22;7311995;19;130103;-37
2022/03/29 00:33:20;;;;;;;28.07;2.83;;;;;;;20.98;55.17;99170.78;7308359;19;155009;-36
2022/03/29 00:35:46;;;;;;;21.53;2.10;;;;;;;21.08;55.33;99186.41;7309117;19;154549;-35
2022/03/29 00:38:11;;;;;;;27.88;2.65;;;;;;;21.09;55.63;99181.03;7310646;19;154058;-37
2022/03/29 00:40:36;;;;;;;37.60;3.63;;;;;;;21.05;55.52;99186.72;7310659;19;152577;-39
2022/03/29 00:43:02;;;;;;;45.90;3.85;;;;;;;20.96;55.94;99172.69;7308124;19;159092;-34
2022/03/29 00:45:27;;;;;;;48.97;4.38;;;;;;;21.02;55.47;99182.63;7308653;19;129181;-36
2022/03/29 00:47:52;;;;;;;19.73;2.08;;;;;;;21.04;55.53;99180.66;7312495;19;129959;-38
2022/03/29 00:50:18;;;;;;;19.92;2.08;;;;;;;21.04;55.24;99177.25;7310537;19;157248;-38
2022/03/29 00:52:43;;;;;;;38.03;3.80;;;;;;;21.03;55.37;99173.78;7306661;19;131158;-37
2022/03/29 00:55:13;;;;;;;44.03;3.90;;;;;;;21.04;55.54;99180.66;7310036;19;129360;-37
2022/03/29 00:57:39;;;;;;;35.42;3.13;;;;;;;21.03;55.45;99170.34;7311210;19;130497;-39
2022/03/29 01:00:05;;;;;;;39.95;3.50;;;;;;;21.01;55.18;99160.03;7311147;19;130225;-38
2022/03/29 01:02:30;;;;;;;27.30;2.57;;;;;;;21.02;55.28;99166.94;7309923;19;130367;-31
2022/03/29 01:04:55;;;;;;;33.00;3.03;;;;;;;21.02;55.98;99160.88;7309365;19;131132;-38
2022/03/29 01:07:21;;;;;;;19.85;2.00;;;;;;;21.00;55.79;99162.81;7309928;19;129580;-32
2022/03/29 01:09:46;;;;;;;41.07;3.53;;;;;;;21.05;55.96;99160.56;7307890;19;148429;-33
2022/03/29 01:12:11;;;;;;;32.17;2.75;;;;;;;20.95;55.39;99139.69;7307506;19;144857;-37
2022/03/29 01:14:37;;;;;;;35.30;3.40;;;;;;;21.04;54.77;99154.53;7310191;19;155654;-29
2022/03/29 01:19:50;;;;;;;29.75;2.75;;;;;;;21.02;55.34;99137.34;7311519;19;129299;-33
2022/03/29 01:22:16;;;;;;;25.27;2.53;;;;;;;21.03;55.58;99142.44;7308189;19;130570;-26
2022/03/29 01:24:46;;;;;;;40.20;3.58;;;;;;;21.00;55.40;99136.66;7309832;19;129222;-29
2022/03/29 01:27:12;;;;;;;30.25;2.72;;;;;;;21.02;55.77;99135.56;7310165;19;129224;-30
2022/03/29 01:29:39;;;;;;;35.55;2.95;;;;;;;21.03;55.63;99136.38;7310331;19;129148;-27
2022/03/29 01:32:08;;;;;;;31.63;2.90;;;;;;;21.03;55.50;99131.16;7314148;19;132386;-33
2022/03/29 01:34:37;;;;;;;30.27;2.72;;;;;;;20.99;55.37;99125.38;7318285;19;129136;-36
2022/03/29 01:37:04;;;;;;;35.83;3.42;;;;;;;21.00;55.65;99126.22;7315997;19;129304;-32
2022/03/29 01:39:29;;;;;;;40.05;3.55;;;;;;;21.02;55.70;99130.34;7316365;19;130520;-33
2022/03/29 01:41:54;;;;;;;41.90;3.58;;;;;;;21.03;55.52;99128.53;7314043;19;152405;-30
2022/03/29 01:44:19;;;;;;;29.95;2.90;;;;;;;21.00;55.49;99126.22;7315828;19;154809;-30
2022/03/29 01:46:45;;;;;;;31.60;2.85;;;;;;;21.01;55.56;99127.84;7315068;19;154138;-35
2022/03/29 01:49:10;;;;;;;23.13;2.33;;;;;;;20.93;55.50;99110.28;7316948;19;131630;-34
2022/03/29 01:51:36;;;;;;;37.00;3.28;;;;;;;20.97;55.33;99122.13;7314528;19;130355;-27
2022/03/29 01:54:02;;;;;;;38.70;3.63;;;;;;;20.99;56.15;99122.78;7316794;19;130517;-29
2022/03/29 01:56:32;;;;;;;34.65;3.00;;;;;;;20.98;55.99;99113.31;7314540;19;129061;-33
2022/03/29 01:58:59;;;;;;;23.90;2.47;;;;;;;20.99;55.72;99114.94;7316398;19;130172;-26
2022/03/29 02:01:24;;;;;;;42.42;3.67;;;;;;;21.02;55.69;99114.66;7314097;19;130796;-34
2022/03/29 02:03:49;;;;;;;24.58;2.47;;;;;;;21.01;55.95;99113.00;7313958;19;154774;-38
2022/03/29 02:06:15;;;;;;;27.05;2.47;;;;;;;20.99;55.49;99109.72;7314805;19;154361;-29
2022/03/29 02:08:41;;;;;;;43.80;3.67;;;;;;;20.99;55.40;99109.72;7313207;19;158702;-33
2022/03/29 02:11:07;;;;;;;36.20;3.70;;;;;;;20.91;55.22;99101.75;7315834;19;130435;-32
2022/03/29 02:13:33;;;;;;;26.27;2.45;;;;;;;20.98;55.61;99118.53;7312927;19;128998;-38
2022/03/29 02:15:58;;;;;;;32.20;3.03;;;;;;;21.00;55.19;99106.16;7314276;19;129025;-31
2022/03/29 02:18:23;;;;;;;34.63;3.20;;;;;;;21.00;55.40;99100.91;7313789;19;158518;-34
2022/03/29 02:20:49;;;;;;;35.55;3.28;;;;;;;21.01;55.73;99110.38;7313261;19;158495;-31
2022/03/29 02:23:15;;;;;;;9.85;1.63;;;;;;;21.00;55.95;99105.31;7313059;19;129178;-38
2022/03/29 02:25:42;;;;;;;43.17;3.67;;;;;;;20.96;55.71;99098.72;7312264;19;128936;-32
2022/03/29 02:28:08;;;;;;;33.28;2.90;;;;;;;21.00;55.57;99100.09;7315827;19;131384;-31
2022/03/29 02:30:33;;;;;;;44.33;3.70;;;;;;;20.98;55.42;99097.63;7316214;19;136178;-34
2022/03/29 02:32:59;;;;;;;37.83;3.20;;;;;;;20.98;55.57;99096.78;7312107;19;129261;-41
2022/03/29 02:35:25;;;;;;;52.50;4.57;;;;;;;20.96;55.68;99094.28;7315023;19;129139;-38
2022/03/29 02:37:50;;;;;;;35.15;2.72;;;;;;;20.96;55.24;99091.69;7314534;19;129776;-32
2022/03/29 02:40:15;;;;;;;28.10;2.60;;;;;;;20.98;55.13;99096.78;7313411;19;148133;-33
2022/03/29 02:42:48;;;;;;;18.80;2.03;;;;;;;20.99;55.99;99098.47;7312163;19;129511;-39
2022/03/29 02:45:19;;;;;;;23.67;2.35;;;;;;;20.99;55.91;99099.25;7313219;19;129063;-38
2022/03/29 02:47:47;;;;;;;32.05;3.15;;;;;;;20.98;55.40;99095.00;7314665;19;129223;-31
2022/03/29 02:50:14;;;;;;;28.88;2.92;;;;;;;20.98;55.83;99096.78;7313405;19;132024;-33
2022/03/29 02:52:59;;;;;;;30.00;2.63;;;;;;;20.99;56.39;99090.63;7314100;19;128908;-38
2022/03/29 02:55:28;;;;;;;47.00;4.30;;;;;;;20.96;55.51;99089.06;7314267;19;129296;-31
2022/03/29 02:57:54;;;;;;;23.73;2.15;;;;;;;20.96;55.97;99091.69;7312616;19;131360;-39
2022/03/29 03:00:20;;;;;;;30.57;2.87;;;;;;;20.96;55.83;99094.28;7314498;19;130351;-36
2022/03/29 03:02:47;;;;;;;25.42;2.47;;;;;;;20.97;55.46;99101.22;7313410;19;130217;-29
2022/03/29 03:05:12;;;;;;;;;;;;;;;20.97;57.27;99101.22;7314189;19;129096;-35
2022/03/29 03:07:38;;;;;;;29.70;2.67;;;;;;;20.98;56.05;99097.63;7314008;19;130341;-36
2022/03/29 03:10:05;;;;;;;32.60;2.97;;;;;;;20.94;55.92;99096.22;7315823;19;129951;-39
2022/03/29 03:12:42;;;;;;;34.50;3.10;;;;;;;20.93;57.03;99097.22;7311852;19;128948;-37
2022/03/29 03:15:08;;;;;;;;;;;;;;;20.97;57.23;99096.00;7314783;19;129075;-33
2022/03/29 03:17:33;;;;;;;37.10;3.10;;;;;;;20.96;55.41;99090.88;7315016;19;130151;-33
2022/03/29 03:19:59;;;;;;;32.70;3.00;;;;;;;20.95;55.54;99097.88;7313903;19;146643;-32
2022/03/29 03:22:24;;;;;;;17.70;2.03;;;;;;;20.96;55.85;99096.09;7313048;19;129621;-37
2022/03/29 03:24:50;;;;;;;21.23;2.03;;;;;;;20.95;55.72;99091.84;7313579;19;129344;-34
2022/03/29 03:27:16;;;;;;;37.83;3.47;;;;;;;20.93;55.59;99086.75;7313581;19;130118;-34
2022/03/29 03:29:45;;;;;;;33.77;3.07;;;;;;;20.95;56.20;99092.66;7314262;19;130331;-28
2022/03/29 03:32:14;;;;;;;38.58;3.15;;;;;;;20.96;55.61;99085.66;7312451;19;129497;-31
2022/03/29 03:34:40;;;;;;;25.00;2.55;;;;;;;20.96;55.68;99083.84;7313784;19;130904;-34
2022/03/29 03:37:05;;;;;;;25.77;2.67;;;;;;;20.94;55.38;99080.56;7312974;19;129436;-34
2022/03/29 03:39:35;;;;;;;16.05;1.83;;;;;;;20.94;55.46;99083.16;7312714;19;131179;-36
2022/03/29 03:42:01;;;;;;;33.13;3.03;;;;;;;20.93;55.61;99072.88;7310697;19;130947;-32
2022/03/29 03:44:27;;;;;;;27.17;2.50;;;;;;;20.93;55.99;99078.09;7312952;19;129591;-30
2022/03/29 03:46:52;;;;;;;47.40;3.70;;;;;;;20.93;55.28;99084.16;7310889;19;129653;-33
2022/03/29 03:49:17;;;;;;;23.45;2.22;;;;;;;20.93;56.03;99078.91;7313688;19;129686;-34
2022/03/29 03:51:43;;;;;;;34.15;2.85;;;;;;;20.93;55.39;99078.91;7311607;19;129282;-33
2022/03/29 03:54:08;;;;;;;18.10;1.98;;;;;;;20.94;55.83;99075.31;7306528;19;152826;-42
2022/03/29 03:56:33;;;;;;;38.33;3.53;;;;;;;20.86;56.00;99053.53;7309621;19;159102;-37
2022/03/29 03:58:58;;;;;;;40.00;3.65;;;;;;;20.93;55.45;99078.91;7309476;19;157670;-33
2022/03/29 04:01:24;;;;;;;26.10;2.28;;;;;;;20.93;55.56;99068.47;7310226;19;155181;-34
2022/03/29 04:03:49;;;;;;;32.17;2.88;;;;;;;20.91;56.22;99067.78;7312365;19;129020;-34
2022/03/29 04:06:14;;;;;;;13.05;1.52;;;;;;;20.86;55.76;99058.78;7303171;19;161558;-32
2022/03/29 04:08:40;;;;;;;41.87;3.47;;;;;;;20.92;55.90;99066.84;7308378;19;158408;-34
2022/03/29 04:11:06;;;;;;;46.80;4.22;;;;;;;20.93;55.84;99068.47;7310669;19;129407;-33
2022/03/29 04:13:32;;;;;;;15.17;1.77;;;;;;;20.94;55.59;99074.53;7309998;19;129941;-37
2022/03/29 04:15:58;;;;;;;20.00;2.20;;;;;;;20.93;55.33;99071.09;7311049;19;130126;-39
2022/03/29 04:18:23;;;;;;;38.03;3.42;;;;;;;20.95;55.80;99071.75;7309412;19;130264;-30
2022/03/29 04:20:48;;;;;;;33.67;3.40;;;;;;;20.94;55.52;99066.69;7310973;19;154305;-38
2022/03/29 04:23:14;;;;;;;25.83;2.33;;;;;;;20.93;55.52;99063.25;7306214;19;153924;-33
2022/03/29 04:25:39;;;;;;;38.22;3.60;;;;;;;20.87;55.63;99052.56;7309012;19;129531;-33
2022/03/29 04:28:04;;;;;;;44.00;3.75;;;;;;;20.93;55.72;99050.19;7309787;19;131860;-41
2022/03/29 04:30:29;;;;;;;37.75;3.47;;;;;;;20.83;55.89;99045.97;7309407;19;129351;-36
2022/03/29 04:32:55;;;;;;;39.78;3.53;;;;;;;20.92;56.10;99053.78;7306134;19;153862;-32
2022/03/29 04:35:20;;;;;;;62.58;5.38;;;;;;;20.94;55.75;99053.63;7309381;19;146094;-32
2022/03/29 04:37:45;;;;;;;62.13;5.10;;;;;;;20.92;55.77;99058.16;7309417;19;131033;-35
2022/03/29 04:40:12;;;;;;;24.98;2.38;;;;;;;20.93;56.04;99051.97;7309064;19;155025;-40
2022/03/29 04:42:45;;;;;;;32.65;2.88;;;;;;;20.89;56.12;99054.03;7308975;19;129127;-37
2022/03/29 04:45:11;;;;;;;39.58;3.40;;;;;;;20.93;55.69;99051.97;7309293;19;130144;-34
2022/03/29 04:47:37;;;;;;;45.60;3.63;;;;;;;20.91;55.54;99059.94;7309930;19;130470;-35
2022/03/29 04:50:02;;;;;;;31.02;2.88;;;;;;;20.90;55.95;99045.25;7311216;19;130287;-36
2022/03/29 04:52:28;;;;;;;32.97;2.97;;;;;;;20.87;56.09;99058.63;7306513;19;130424;-34
2022/03/29 04:54:53;;;;;;;20.63;1.92;;;;;;;20.91;55.90;99054.72;7306544;19;158370;-38
2022/03/29 04:57:18;;;;;;;46.30;3.80;;;;;;;20.89;55.68;99046.19;7308433;19;157508;-33
2022/03/29 04:59:43;;;;;;;32.63;2.83;;;;;;;20.90;55.59;99054.88;7307654;19;154622;-32
2022/03/29 05:02:09;;;;;;;31.23;2.73;;;;;;;20.89;55.56;99051.44;7307439;19;153984;-33
2022/03/29 05:04:34;;;;;;;33.80;3.15;;;;;;;20.92;55.53;99050.31;7309753;19;129456;-35
2022/03/29 05:07:00;;;;;;;38.33;3.28;;;;;;;20.91;55.64;99059.94;7313657;19;158370;-36
2022/03/29 05:09:25;;;;;;;33.20;3.03;;;;;;;20.84;55.70;99045.81;7317882;19;129626;-32
2022/03/29 05:11:50;;;;;;;53.78;4.53;;;;;;;20.90;55.95;99052.25;7313104;19;154599;-32
2022/03/29 05:14:16;;;;;;;11.07;1.38;;;;;;;20.89;55.62;99046.19;7317315;19;130701;-37
2022/03/29 05:16:41;;;;;;;39.10;3.25;;;;;;;20.91;55.88;99059.16;7313674;19;158776;-39
2022/03/29 05:19:06;;;;;;;29.85;2.90;;;;;;;20.89;55.73;99056.66;7314661;19;155641;-39
2022/03/29 05:21:31;;;;;;;37.67;3.15;;;;;;;20.90;55.63;99058.31;7311968;19;150215;-38
2022/03/29 05:23:57;;;;;;;41.35;3.70;;;;;;;20.93;55.86;99063.25;7315970;19;129762;-39
2022/03/29 05:26:22;;;;;;;11.45;1.20;;;;;;;20.80;55.68;99041.88;7313174;19;134333;-39
2022/03/29 05:28:47;;;;;;;39.45;3.35;;;;;;;20.89;55.46;99056.66;7315097;19;133152;-34
2022/03/29 05:31:13;;;;;;;100.80;7.95;;;;;;;20.94;55.43;99054.41;7308338;19;129555;-39
2022/03/29 05:33:38;;;;;;;44.55;3.85;;;;;;;20.91;56.12;99048.69;7303712;19;137584;-39
2022/03/29 05:36:04;;;;;;;49.58;4.72;;;;;;;20.89;55.79;99050.63;7306774;19;146314;-38
2022/03/29 05:38:29;;;;;;;33.55;3.10;;;;;;;20.87;55.58;99053.41;7315281;19;129217;-38
2022/03/29 05:40:54;;;;;;;31.25;2.78;;;;;;;20.84;55.83;99045.81;7313464;19;154059;-36
2022/03/29 05:43:20;;;;;;;18.00;2.23;;;;;;;20.84;57.16;99060.69;7312436;19;156354;-38
2022/03/29 05:48:51;;;;;;;26.70;2.25;;;;;;;20.86;56.13;99061.38;7312757;19;129439;-39
2022/03/29 05:48:52;;;;;;;28.88;2.75;;;;;;;20.83;55.22;99059.88;7313226;19;129250;-37
2022/03/29 05:51:18;;;;;;;26.80;2.58;;;;;;;20.83;55.87;99067.72;7316038;19;128870;-37
2022/03/29 05:53:44;;;;;;;45.72;4.22;;;;;;;20.74;56.27;99052.94;7313692;19;129481;-37
2022/03/29 05:56:09;;;;;;;34.27;3.10;;;;;;;20.82;55.26;99071.31;7314639;19;130380;-36
2022/03/29 05:58:35;;;;;;;46.33;4.05;;;;;;;20.80;55.45;99062.78;7313317;19;154833;-38
2022/03/29 06:01:00;;;;;;;41.17;3.45;;;;;;;20.83;55.68;99078.16;7315347;19;129278;-36
2022/03/29 06:03:25;;;;;;;51.90;4.68;;;;;;;20.79;56.32;99065.53;7308542;19;129388;-37
2022/03/29 06:05:51;;;;;;;21.00;2.03;;;;;;;20.81;55.93;99068.84;7311585;19;157867;-37
2022/03/29 06:08:16;;;;;;;40.95;3.92;;;;;;;20.82;55.60;99068.69;7313387;19;129023;-35
2022/03/29 06:10:42;;;;;;;41.43;4.00;;;;;;;20.80;55.21;99067.19;7312670;19;155369;-36
2022/03/29 06:13:08;;;;;;;68.68;5.90;;;;;;;20.80;55.63;99067.19;7311692;19;130179;-40
2022/03/29 06:15:34;;;;;;;34.30;3.42;;;;;;;20.74;55.73;99066.78;7308697;19;131469;-40
2022/03/29 06:18:00;;;;;;;35.20;3.10;;;;;;;20.68;56.92;99056.13;7309011;19;129293;-40
2022/03/29 06:20:25;;;;;;;33.78;3.00;;;;;;;20.79;55.68;99082.06;7315092;19;129585;-40
2022/03/29 06:22:51;;;;;;;21.27;2.23;;;;;;;20.79;55.99;99081.22;7306264;19;158489;-40
2022/03/29 06:25:16;;;;;;;34.55;3.15;;;;;;;20.76;55.95;99078.91;7308659;19;158694;-36
2022/03/29 06:27:43;;;;;;;24.23;2.30;;;;;;;20.74;57.71;99089.50;7313820;19;129010;-38
2022/03/29 06:30:09;;;;;;;;;;;;;;;20.79;57.55;99087.28;7314629;19;129270;-35
2022/03/29 06:32:43;;;;;;;68.57;6.05;;;;;;;20.76;56.52;99087.53;7312408;19;129720;-35
2022/03/29 06:35:08;;;;;;;34.20;3.38;;;;;;;20.73;57.08;99087.84;7313553;19;130863;-39
2022/03/29 06:37:34;;;;;;;48.17;4.00;;;;;;;20.73;57.13;99082.63;7310101;19;154509;-37
2022/03/29 06:39:59;;;;;;;36.00;3.35;;;;;;;20.72;57.70;99091.44;7314058;19;129273;-40
2022/03/29 06:42:24;;;;;;;37.53;3.45;;;;;;;20.70;57.48;99090.75;7308845;19;153792;-37
2022/03/29 06:44:49;;;;;;;20.50;2.15;;;;;;;20.73;56.91;99086.06;7313051;19;158431;-34
2022/03/29 06:47:16;;;;;;;38.38;3.30;;;;;;;20.70;56.77;99083.75;7312156;19;153801;-38
2022/03/29 06:49:41;;;;;;;28.65;2.63;;;;;;;20.68;57.46;99077.84;7313744;19;132514;-38
2022/03/29 06:52:07;;;;;;;41.28;3.83;;;;;;;20.73;57.08;99078.22;7311417;19;130867;-39
2022/03/29 06:54:32;;;;;;;33.20;3.22;;;;;;;20.71;57.17;99076.72;7314186;19;130952;-36
2022/03/29 06:56:57;;;;;;;47.55;4.32;;;;;;;20.71;56.57;99066.25;7311999;19;154606;-36
2022/03/29 06:59:23;;;;;;;21.90;2.27;;;;;;;20.71;57.09;99068.88;7312905;19;154069;-38
2022/03/29 07:01:48;;;;;;;28.87;2.80;;;;;;;20.70;57.15;99078.53;7311920;19;156794;-34
2022/03/29 07:04:14;;;;;;;19.88;2.05;;;;;;;20.70;57.02;99062.03;7313377;19;129594;-36
2022/03/29 07:06:39;;;;;;;27.58;2.58;;;;;;;20.69;56.81;99065.59;7309284;19;154188;-38
2022/03/29 07:11:48;;;;;;;15.07;1.77;;;;;;;20.64;57.02;99067.84;7313973;19;128915;-40
2022/03/29 07:14:13;;;;;;;28.88;2.70;;;;;;;20.56;57.74;99050.28;7313398;19;129473;-38
2022/03/29 07:16:41;;;;;;;16.23;1.77;;;;;;;20.68;56.29;99063.94;7314393;19;128855;-40
2022/03/29 07:19:10;;;;;;;22.10;2.38;;;;;;;20.64;57.73;99065.22;7313453;19;129088;-39
2022/03/29 07:21:39;;;;;;;34.10;3.15;;;;;;;20.66;56.47;99065.88;7312939;19;130286;-39
2022/03/29 07:24:05;;;;;;;27.02;2.60;;;;;;;20.64;57.77;99062.63;7313544;19;130582;-39
2022/03/29 07:26:31;;;;;;;;;;;;;;;20.69;57.73;99065.59;7312155;19;129585;-40
2022/03/29 07:28:56;;;;;;;30.40;2.92;;;;;;;20.55;57.58;99053.03;7313285;19;128921;-40
2022/03/29 07:31:22;;;;;;;25.08;2.47;;;;;;;20.67;56.33;99067.53;7310947;19;159235;-38
2022/03/29 07:33:48;;;;;;;38.03;3.70;;;;;;;20.64;56.84;99067.84;7311379;19;130412;-41
2022/03/29 07:36:13;;;;;;;21.63;2.28;;;;;;;20.66;57.19;99076.31;7312588;19;129311;-38
2022/03/29 07:38:38;;;;;;;21.90;2.10;;;;;;;20.66;56.80;99071.09;7310998;19;154729;-40
2022/03/29 07:41:04;;;;;;;32.00;3.08;;;;;;;20.66;57.23;99068.50;7310916;19;158399;-39
2022/03/29 07:43:30;;;;;;;28.13;2.72;;;;;;;20.64;57.68;99062.63;7310145;19;130364;-40
2022/03/29 07:45:56;;;;;;;;;;;;;;;20.65;58.46;99064.25;7312047;19;129595;-40
2022/03/29 07:48:22;;;;;;;47.50;4.33;;;;;;;20.61;57.06;99068.09;7311115;19;130618;-39
2022/03/29 07:50:48;;;;;;;22.75;2.25;;;;;;;20.61;56.52;99071.56;7312958;19;130723;-34
2022/03/29 07:53:13;;;;;;;19.98;1.88;;;;;;;20.60;57.81;99071.69;7310282;19;129572;-39
2022/03/29 07:55:40;;;;;;;26.70;2.63;;;;;;;20.61;57.19;99068.94;7312201;19;128938;-37
2022/03/29 07:58:05;;;;;;;42.08;3.75;;;;;;;20.61;57.32;99075.94;7312649;19;129024;-39
2022/03/29 08:00:34;;;;;;;43.72;4.00;;;;;;;20.62;56.18;99059.31;7311295;19;129405;-40
2022/03/29 08:03:02;;;;;;;28.40;2.67;;;;;;;20.60;56.75;99061.25;7311646;19;130965;-30
2022/03/29 08:05:29;;;;;;;50.40;4.65;;;;;;;20.59;57.33;99070.06;7309341;19;129072;-32
2022/03/29 08:07:57;;;;;;;30.38;2.72;;;;;;;20.59;56.99;99064.84;7312254;19;130698;-30
2022/03/29 08:10:22;;;;;;;15.32;1.90;;;;;;;20.57;57.15;99066.78;7310860;19;130520;-42
2022/03/29 08:12:47;;;;;;;31.13;2.92;;;;;;;20.61;57.75;99068.09;7311069;19;130503;-35
2022/03/29 08:15:13;;;;;;;18.15;2.13;;;;;;;20.58;57.71;99063.19;7309607;19;154885;-36
2022/03/29 08:17:38;;;;;;;30.88;2.97;;;;;;;20.58;58.00;99068.41;7312268;19;129796;-31
2022/03/29 08:20:05;;;;;;;40.92;3.38;;;;;;;20.59;56.69;99060.41;7310257;19;129698;-34
2022/03/29 08:22:31;;;;;;;;;;;;;;;20.61;58.43;99060.28;7310536;19;131820;-28
2022/03/29 08:24:56;;;;;;;23.08;2.20;;;;;;;20.58;58.09;99061.41;7311268;19;129172;-31
2022/03/29 08:27:21;;;;;;;35.13;3.40;;;;;;;20.58;56.47;99061.41;7309786;19;154072;-36
2022/03/29 08:29:47;;;;;;;31.83;2.92;;;;;;;20.57;57.79;99066.78;7312377;19;131363;-31
2022/03/29 08:32:13;;;;;;;7.72;1.33;;;;;;;20.57;57.45;99064.16;7309402;19;130442;-31
2022/03/29 08:34:39;;;;;;;27.33;2.63;;;;;;;20.55;58.16;99058.25;7309190;19;130937;-32
2022/03/29 08:37:04;;;;;;;62.22;5.43;;;;;;;20.58;57.30;99057.97;7310055;19;129637;-41
2022/03/29 08:39:29;;;;;;;22.80;2.20;;;;;;;20.58;57.88;99052.72;7308587;19;130019;-30
2022/03/29 08:42:02;;;;;;;34.03;3.07;;;;;;;20.57;57.74;99051.09;7321844;19;158482;-31
2022/03/29 08:44:31;;;;;;;27.98;2.67;;;;;;;20.58;57.08;99047.50;7326446;19;128691;-29
2022/03/29 08:46:57;;;;;;;30.27;2.83;;;;;;;20.59;57.20;99049.19;7322737;19;129851;-28
2022/03/29 08:49:23;;;;;;;35.50;3.47;;;;;;;20.59;57.13;99049.19;7323962;19;129566;-36
2022/03/29 08:51:49;;;;;;;20.30;1.93;;;;;;;20.48;58.40;99033.69;7322485;19;130518;-31
2022/03/29 08:54:15;;;;;;;27.00;2.45;;;;;;;20.56;58.38;99045.03;7326032;19;128938;-34
2022/03/29 08:56:40;;;;;;;23.35;2.40;;;;;;;20.54;58.25;99040.94;7324463;19;128923;-29
2022/03/29 08:59:05;;;;;;;33.67;3.08;;;;;;;20.55;57.67;99042.59;7325387;19;130240;-34
2022/03/29 09:01:31;;;;;;;57.50;4.65;;;;;;;20.57;56.73;99043.28;7323533;19;130367;-38
2022/03/29 09:04:11;;;;;;;43.90;3.83;;;;;;;20.53;58.14;99042.72;7323374;19;129199;-29
2022/03/29 09:06:55;;;;;;;25.13;2.30;;;;;;;20.44;58.94;99025.31;7323164;19;129173;-31
2022/03/29 09:09:28;;;;;;;6.60;1.17;;;;;;;20.47;58.36;99035.50;7324743;19;130346;-28
2022/03/29 09:11:56;;;;;;;45.50;4.18;;;;;;;20.53;58.03;99047.97;7321363;19;159556;-34
2022/03/29 09:14:22;;;;;;;9.70;1.33;;;;;;;20.53;57.40;99044.50;7324418;19;130297;-35
2022/03/29 09:16:49;;;;;;;22.23;2.13;;;;;;;20.56;56.52;99039.03;7324684;19;129020;-31
2022/03/29 09:19:14;;;;;;;24.25;2.30;;;;;;;20.52;57.08;99035.03;7324723;19;131102;-37
2022/03/29 09:21:42;;;;;;;63.83;5.32;;;;;;;20.52;57.33;99038.50;7320034;19;158762;-35
2022/03/29 09:24:11;;;;;;;39.55;3.28;;;;;;;20.52;57.88;99037.66;7322297;19;129056;-27
2022/03/29 09:26:38;;;;;;;28.65;2.60;;;;;;;20.52;57.49;99032.44;7323088;19;129604;-34
2022/03/29 09:29:12;;;;;;;30.17;2.70;;;;;;;20.53;57.92;99041.91;7323916;19;130076;-34
2022/03/29 09:31:39;;;;;;;35.70;2.95;;;;;;;20.45;58.93;99031.38;7323919;19;130007;-35
2022/03/29 09:34:13;;;;;;;42.45;3.60;;;;;;;20.51;58.38;99038.63;7320133;19;130206;-36
2022/03/29 09:36:48;;;;;;;25.40;2.50;;;;;;;20.50;58.35;99031.75;7324187;19;129954;-28
2022/03/29 09:39:39;;;;;;;24.23;2.33;;;;;;;20.53;58.73;99032.28;7325551;19;129471;-33
2022/03/29 09:42:09;;;;;;;21.20;2.35;;;;;;;20.50;58.02;99018.69;7319234;19;129248;-35
2022/03/29 09:44:40;;;;;;;24.30;2.45;;;;;;;20.51;58.43;99017.75;7324583;19;129633;-34
2022/03/29 09:47:08;;;;;;;52.33;4.68;;;;;;;20.44;57.65;99008.84;7318312;19;129499;-29
2022/03/29 09:50:01;;;;;;;34.63;3.00;;;;;;;20.50;58.88;99016.91;7323779;19;130296;-33
2022/03/29 09:52:28;;;;;;;58.47;5.15;;;;;;;20.51;57.57;99015.13;7313817;19;130914;-33
2022/03/29 09:55:04;;;;;;;;;;;;;;;20.54;58.18;99020.06;7313984;19;155233;-37
2022/03/29 09:57:37;;;;;;;38.88;3.45;;;;;;;20.43;57.37;99007.19;7313200;19;129077;-32
2022/03/29 10:00:05;;;;;;;32.50;3.05;;;;;;;20.49;57.16;99011.84;7315714;19;131064;-28
2022/03/29 10:02:48;;;;;;;22.98;2.45;;;;;;;20.50;57.91;99013.47;7313468;19;131369;-32
2022/03/29 10:05:17;;;;;;;36.30;3.22;;;;;;;20.47;58.57;99014.59;7313812;19;130363;-35
2022/03/29 10:10:49;;;;;;;22.20;2.38;;;;;;;20.48;57.63;99010.19;7314620;19;129028;-36
2022/03/29 10:13:17;;;;;;;20.40;2.08;;;;;;;20.49;56.25;99006.63;7313863;19;129280;-33
2022/03/29 10:15:45;;;;;;;29.92;2.78;;;;;;;20.48;57.41;99010.19;7313745;19;130714;-28
2022/03/29 10:18:11;;;;;;;33.95;3.05;;;;;;;20.47;56.87;99006.78;7316173;19;130484;-32
2022/03/29 10:20:37;;;;;;;27.93;2.80;;;;;;;20.48;58.46;98997.97;7312283;19;130371;-34
2022/03/29 10:23:03;;;;;;;34.55;3.25;;;;;;;20.38;58.74;98983.31;7313621;19;130286;-35
2022/03/29 10:25:29;;;;;;;50.23;4.77;;;;;;;20.48;58.11;99004.97;7315185;19;129465;-35
2022/03/29 10:27:56;;;;;;;20.97;2.27;;;;;;;20.47;57.63;99004.16;7312713;19;154301;-38
2022/03/29 10:30:34;;;;;;;34.47;3.15;;;;;;;20.38;58.19;98984.13;7314155;19;130757;-38
2022/03/29 10:33:23;;;;;;;27.58;2.60;;;;;;;20.45;58.67;98992.22;7313345;19;145029;-31
2022/03/29 10:36:09;;;;;;;26.90;2.53;;;;;;;20.36;58.07;98969.59;7314256;19;129417;-37
2022/03/29 10:38:43;;;;;;;71.43;6.22;;;;;;;20.43;58.02;98988.91;7308719;19;130216;-44
2022/03/29 10:41:30;;;;;;;41.78;3.60;;;;;;;20.46;58.72;98978.19;7311004;19;130215;-34
2022/03/29 10:44:01;;;;;;;24.80;2.33;;;;;;;20.40;56.89;98968.31;7315534;19;129198;-43
2022/03/29 10:46:46;;;;;;;32.30;3.00;;;;;;;20.37;58.45;98971.22;7313422;19;129205;-35
2022/03/29 10:49:21;;;;;;;23.70;2.28;;;;;;;20.44;58.78;98980.13;7314022;19;128970;-32
2022/03/29 10:51:55;;;;;;;19.15;1.98;;;;;;;20.34;58.20;98955.88;7313655;19;130132;-32
2022/03/29 10:54:30;;;;;;;18.27;1.90;;;;;;;20.47;57.84;98966.78;7316090;19;131228;-33
2022/03/29 10:57:03;;;;;;;25.92;2.35;;;;;;;20.48;56.84;98964.00;7313169;19;129597;-36
2022/03/29 10:59:30;;;;;;;16.50;2.05;;;;;;;20.45;57.37;98971.31;7313639;19;130794;-32
2022/03/29 11:02:12;;;;;;;;;;;;;;;20.46;58.64;98965.16;7311623;19;129536;-46
2022/03/29 11:05:03;;;;;;;24.25;2.40;;;;;;;20.45;58.37;98968.72;7313589;19;130359;-36
2022/03/29 11:07:30;;;;;;;22.30;2.67;;;;;;;20.45;57.27;98968.72;7311680;19;128852;-39
2022/03/29 11:10:13;;;;;;;35.20;3.28;;;;;;;20.43;58.65;98966.25;7313602;19;128890;-44
2022/03/29 11:12:51;;;;;;;26.80;2.40;;;;;;;20.44;58.95;98964.47;7313014;19;129253;-28
2022/03/29 11:15:36;;;;;;;38.92;3.38;;;;;;;20.44;58.13;98946.19;7312084;19;130484;-33
2022/03/29 11:18:22;;;;;;;37.53;3.42;;;;;;;20.41;57.16;98951.72;7314487;19;129058;-37
2022/03/29 11:20:54;;;;;;;26.27;2.47;;;;;;;20.40;57.89;98944.81;7312349;19;129581;-33
2022/03/29 11:23:31;;;;;;;39.50;3.50;;;;;;;20.42;58.12;98948.13;7311086;19;129468;-35
2022/03/29 11:25:56;;;;;;;25.77;2.35;;;;;;;20.41;57.92;98952.50;7313343;19;129158;-35
2022/03/29 11:28:22;;;;;;;26.65;2.60;;;;;;;20.42;58.00;98950.72;7313443;19;129057;-41
2022/03/29 11:30:54;;;;;;;22.17;2.03;;;;;;;20.42;57.93;98942.91;7312908;19;154224;-33